createdAt,value
2018-07-07T00:00:38.773Z,13.40
2018-07-07T00:03:07.859Z,13.30
2018-07-07T00:05:36.967Z,13.30
2018-07-07T00:08:06.120Z,13.20
2018-07-07T00:10:35.192Z,13.20
2018-07-07T00:13:04.262Z,13.10
2018-07-07T00:15:33.362Z,13.10
2018-07-07T00:18:02.416Z,13.10
2018-07-07T00:20:31.506Z,13.00
2018-07-07T00:23:00.590Z,13.00
2018-07-07T00:25:29.927Z,13.00
2018-07-07T00:27:58.999Z,12.90
2018-07-07T00:30:28.055Z,12.90
2018-07-07T00:32:57.157Z,12.90
2018-07-07T00:35:26.248Z,12.90
2018-07-07T00:37:55.355Z,12.80
2018-07-07T00:40:24.708Z,12.80
2018-07-07T00:42:53.793Z,12.80
2018-07-07T00:45:22.916Z,12.80
2018-07-07T00:47:51.967Z,12.70
2018-07-07T00:50:21.740Z,12.70
2018-07-07T00:52:50.804Z,12.70
2018-07-07T00:55:19.981Z,12.70
2018-07-07T00:57:49.068Z,12.70
2018-07-07T01:02:47.068Z,12.60
2018-07-07T01:05:27.481Z,12.60
2018-07-07T01:07:56.693Z,12.60
2018-07-07T01:10:25.772Z,12.50
2018-07-07T01:12:54.851Z,12.50
2018-07-07T01:15:23.919Z,12.40
2018-07-07T01:17:53.000Z,12.40
2018-07-07T01:20:22.107Z,12.30
2018-07-07T01:22:51.191Z,12.30
2018-07-07T01:25:20.243Z,12.30
2018-07-07T01:27:49.310Z,12.30
2018-07-07T01:30:18.388Z,12.30
2018-07-07T01:32:47.450Z,12.30
2018-07-07T01:35:16.516Z,12.20
2018-07-07T01:37:45.686Z,12.20
2018-07-07T01:42:43.332Z,12.20
2018-07-07T01:45:12.517Z,12.20
2018-07-07T01:47:41.580Z,12.10
2018-07-07T01:50:10.638Z,12.10
2018-07-07T01:52:39.684Z,12.10
2018-07-07T01:55:08.780Z,12.10
2018-07-07T01:57:37.820Z,12.10
2018-07-07T02:00:06.915Z,12.10
2018-07-07T02:02:35.977Z,12.00
2018-07-07T02:05:05.054Z,12.10
2018-07-07T02:07:34.095Z,12.00
2018-07-07T02:10:03.212Z,12.00
2018-07-07T02:12:32.294Z,12.00
2018-07-07T02:15:01.349Z,12.00
2018-07-07T02:17:30.392Z,12.00
2018-07-07T02:19:59.460Z,12.00
2018-07-07T02:22:28.511Z,12.00
2018-07-07T02:24:57.564Z,12.00
2018-07-07T02:27:26.647Z,12.00
2018-07-07T02:29:56.691Z,12.00
2018-07-07T02:32:25.766Z,12.00
2018-07-07T02:34:54.820Z,12.00
2018-07-07T02:37:23.877Z,12.00
2018-07-07T02:39:53.041Z,12.10
2018-07-07T02:42:22.376Z,12.10
2018-07-07T02:44:51.435Z,12.10
2018-07-07T02:47:21.116Z,12.10
2018-07-07T02:54:47.579Z,12.10
2018-07-07T02:57:16.639Z,12.10
2018-07-07T02:59:45.708Z,12.10
2018-07-07T03:02:14.760Z,12.10
2018-07-07T03:04:43.853Z,12.10
2018-07-07T03:07:12.942Z,12.10
2018-07-07T03:09:42.033Z,12.00
2018-07-07T03:12:11.127Z,12.00
2018-07-07T03:14:40.213Z,12.00
2018-07-07T03:17:09.277Z,12.00
2018-07-07T03:19:38.373Z,11.90
2018-07-07T03:22:07.436Z,11.90
2018-07-07T03:24:36.495Z,11.90
2018-07-07T03:27:05.611Z,11.90
2018-07-07T03:32:03.386Z,11.80
2018-07-07T03:34:32.404Z,11.80
2018-07-07T03:37:01.478Z,11.80
2018-07-07T03:39:30.695Z,11.80
2018-07-07T03:41:59.771Z,11.80
2018-07-07T03:44:28.839Z,11.80
2018-07-07T03:46:57.895Z,11.90
2018-07-07T03:49:27.052Z,11.80
2018-07-07T03:51:56.060Z,11.90
2018-07-07T03:54:25.124Z,11.90
2018-07-07T03:56:54.205Z,12.00
2018-07-07T03:59:23.251Z,12.00
2018-07-07T04:01:52.323Z,12.10
2018-07-07T04:04:21.390Z,12.10
2018-07-07T04:06:50.460Z,12.20
2018-07-07T04:09:19.532Z,12.20
2018-07-07T04:11:48.595Z,12.20
2018-07-07T04:14:17.674Z,12.30
2018-07-07T04:16:46.755Z,12.30
2018-07-07T04:19:15.825Z,12.30
2018-07-07T04:21:44.924Z,12.30
2018-07-07T04:24:14.026Z,12.40
2018-07-07T04:26:43.107Z,12.40
2018-07-07T04:29:12.199Z,12.50
2018-07-07T04:31:41.285Z,12.50
2018-07-07T04:34:10.352Z,12.50
2018-07-07T04:39:08.232Z,12.50
2018-07-07T04:41:37.282Z,12.60
2018-07-07T04:44:06.372Z,12.70
2018-07-07T04:46:35.465Z,12.70
2018-07-07T04:49:04.765Z,12.80
2018-07-07T04:51:33.841Z,12.90
2018-07-07T04:54:02.900Z,12.90
2018-07-07T04:56:31.994Z,13.00
2018-07-07T04:59:01.143Z,13.00
2018-07-07T05:01:30.207Z,12.90
2018-07-07T05:03:59.286Z,12.90
2018-07-07T05:06:28.382Z,13.00
2018-07-07T05:08:57.451Z,13.00
2018-07-07T05:11:26.529Z,13.10
2018-07-07T05:13:55.594Z,13.20
2018-07-07T05:18:53.311Z,13.40
2018-07-07T05:21:22.383Z,13.40
2018-07-07T05:23:51.456Z,13.60
2018-07-07T05:26:20.511Z,13.70
2018-07-07T05:28:49.580Z,13.70
2018-07-07T05:31:18.703Z,13.80
2018-07-07T05:33:47.763Z,13.90
2018-07-07T05:36:16.906Z,14.10
2018-07-07T05:38:45.946Z,14.20
2018-07-07T05:41:14.984Z,14.30
2018-07-07T05:43:44.067Z,14.40
2018-07-07T05:46:13.220Z,14.50
2018-07-07T05:48:42.281Z,14.60
2018-07-07T05:51:11.342Z,14.70
2018-07-07T05:53:40.415Z,14.80
2018-07-07T05:56:09.523Z,14.90
2018-07-07T05:58:38.595Z,15.00
2018-07-07T06:01:07.671Z,15.10
2018-07-07T06:03:36.739Z,15.20
2018-07-07T06:06:06.004Z,15.30
2018-07-07T06:08:35.070Z,15.40
2018-07-07T06:11:04.160Z,15.40
2018-07-07T06:13:33.232Z,15.40
2018-07-07T06:16:02.310Z,15.40
2018-07-07T06:18:31.754Z,15.50
2018-07-07T06:21:00.811Z,15.60
2018-07-07T06:23:29.911Z,15.80
2018-07-07T06:25:59.128Z,15.90
2018-07-07T06:28:28.193Z,16.00
2018-07-07T06:30:57.231Z,16.10
2018-07-07T06:33:26.287Z,16.20
2018-07-07T06:35:55.373Z,16.20
2018-07-07T06:38:24.431Z,16.20
2018-07-07T06:40:53.530Z,16.20
2018-07-07T06:43:22.639Z,16.20
2018-07-07T06:45:51.687Z,16.40
2018-07-07T06:48:20.747Z,16.40
2018-07-07T06:50:49.827Z,16.60
2018-07-07T06:53:19.045Z,16.60
2018-07-07T06:55:48.084Z,16.60
2018-07-07T06:58:17.176Z,16.80
2018-07-07T07:00:46.273Z,17.00
2018-07-07T07:03:22.174Z,17.30
2018-07-07T07:05:51.328Z,17.30
2018-07-07T07:08:20.448Z,17.30
2018-07-07T07:10:49.513Z,17.40
2018-07-07T07:13:18.637Z,17.40
2018-07-07T07:15:47.711Z,17.30
2018-07-07T07:18:16.770Z,17.50
2018-07-07T07:20:46.164Z,17.80
2018-07-07T07:23:15.235Z,18.00
2018-07-07T07:25:44.292Z,18.10
2018-07-07T07:28:13.431Z,18.00
2018-07-07T07:30:42.483Z,18.00
2018-07-07T07:33:11.529Z,17.60
2018-07-07T07:35:40.729Z,17.50
2018-07-07T07:38:09.810Z,17.60
2018-07-07T07:40:38.871Z,17.60
2018-07-07T07:43:08.245Z,17.70
2018-07-07T07:45:37.447Z,17.90
2018-07-07T07:48:06.525Z,17.90
2018-07-07T07:50:35.600Z,18.10
2018-07-07T07:53:04.681Z,18.30
2018-07-07T07:55:33.746Z,18.40
2018-07-07T07:58:02.812Z,18.50
2018-07-07T08:00:31.904Z,18.40
2018-07-07T08:03:00.975Z,18.50
2018-07-07T08:05:30.139Z,18.50
2018-07-07T08:07:59.255Z,18.50
2018-07-07T08:10:28.377Z,18.60
2018-07-07T08:12:57.424Z,18.60
2018-07-07T08:15:27.414Z,18.50
2018-07-07T08:17:56.461Z,18.50
2018-07-07T08:20:25.564Z,18.50
2018-07-07T08:22:54.741Z,18.40
2018-07-07T08:25:23.784Z,18.40
2018-07-07T08:27:52.876Z,18.60
2018-07-07T08:30:21.943Z,18.60
2018-07-07T08:32:50.994Z,18.40
2018-07-07T08:35:20.035Z,18.70
2018-07-07T08:37:49.107Z,18.90
2018-07-07T08:40:18.148Z,19.00
2018-07-07T08:42:47.288Z,19.10
2018-07-07T08:45:16.311Z,19.10
2018-07-07T08:47:45.410Z,19.40
2018-07-07T08:50:14.451Z,19.40
2018-07-07T08:52:43.504Z,19.40
2018-07-07T08:55:12.563Z,19.30
2018-07-07T09:00:10.389Z,19.50
2018-07-07T09:02:39.482Z,19.30
2018-07-07T09:05:08.663Z,19.10
2018-07-07T09:07:37.730Z,19.10
2018-07-07T09:10:06.800Z,19.10
2018-07-07T09:12:35.887Z,19.40
2018-07-07T09:15:04.948Z,19.50
2018-07-07T09:17:34.007Z,19.50
2018-07-07T09:20:03.119Z,19.20
2018-07-07T09:22:32.176Z,19.10
2018-07-07T09:25:01.935Z,19.10
2018-07-07T09:27:30.990Z,19.00
2018-07-07T09:32:28.763Z,18.90
2018-07-07T09:34:58.003Z,19.00
2018-07-07T09:37:27.607Z,19.10
2018-07-07T09:39:56.898Z,19.20
2018-07-07T09:42:26.004Z,19.40
2018-07-07T09:44:55.057Z,19.50
2018-07-07T09:47:24.118Z,19.40
2018-07-07T09:49:53.175Z,19.40
2018-07-07T09:52:22.259Z,19.50
2018-07-07T09:54:51.306Z,19.70
2018-07-07T09:57:20.515Z,19.70
2018-07-07T09:59:49.542Z,19.80
2018-07-07T10:02:18.587Z,20.00
2018-07-07T10:04:54.557Z,19.90
2018-07-07T10:07:41.853Z,20.00
2018-07-07T10:10:11.140Z,19.90
2018-07-07T10:12:40.191Z,19.90
2018-07-07T10:15:09.278Z,20.00
2018-07-07T10:17:38.373Z,19.90
2018-07-07T10:20:07.523Z,20.00
2018-07-07T10:22:36.567Z,20.20
2018-07-07T10:25:05.673Z,20.30
2018-07-07T10:27:34.731Z,20.40
2018-07-07T10:30:03.812Z,20.40
2018-07-07T10:32:32.843Z,20.40
2018-07-07T10:35:01.899Z,20.50
2018-07-07T10:37:31.035Z,20.60
2018-07-07T10:40:00.181Z,20.90
2018-07-07T10:42:29.367Z,20.70
2018-07-07T10:44:58.435Z,20.70
2018-07-07T10:47:27.542Z,20.80
2018-07-07T10:49:56.580Z,20.90
2018-07-07T10:52:25.791Z,20.90
2018-07-07T10:54:54.838Z,21.00
2018-07-07T10:57:23.900Z,21.00
2018-07-07T10:59:53.008Z,21.00
2018-07-07T11:02:22.238Z,21.00
2018-07-07T11:04:52.121Z,21.00
2018-07-07T11:07:21.167Z,21.00
2018-07-07T11:09:50.225Z,21.10
2018-07-07T11:12:19.278Z,21.20
2018-07-07T11:14:48.364Z,21.30
2018-07-07T11:17:17.403Z,21.40
2018-07-07T11:19:46.515Z,21.30
2018-07-07T11:22:15.595Z,21.30
2018-07-07T11:24:44.634Z,21.50
2018-07-07T11:27:13.680Z,21.70
2018-07-07T11:29:42.785Z,21.60
2018-07-07T11:32:11.818Z,21.70
2018-07-07T11:34:40.883Z,21.70
2018-07-07T11:37:09.966Z,21.60
2018-07-07T11:39:39.183Z,21.60
2018-07-07T11:42:08.266Z,21.70
2018-07-07T11:44:37.331Z,21.70
2018-07-07T11:47:06.411Z,21.50
2018-07-07T11:49:35.447Z,21.50
2018-07-07T11:52:04.541Z,21.60
2018-07-07T11:54:33.596Z,21.80
2018-07-07T11:57:02.660Z,21.90
2018-07-07T11:59:31.787Z,22.00
2018-07-07T12:02:00.883Z,21.90
2018-07-07T12:04:29.963Z,22.00
2018-07-07T12:06:59.384Z,22.20
2018-07-07T12:09:28.452Z,22.10
2018-07-07T12:11:57.531Z,22.00
2018-07-07T12:14:26.640Z,21.90
2018-07-07T12:16:55.714Z,21.80
2018-07-07T12:19:24.757Z,21.90
2018-07-07T12:21:53.827Z,21.90
2018-07-07T12:24:22.903Z,22.00
2018-07-07T12:26:51.996Z,22.10
2018-07-07T12:29:21.199Z,22.20
2018-07-07T12:31:50.254Z,22.30
2018-07-07T12:34:19.310Z,22.30
2018-07-07T12:36:48.481Z,22.30
2018-07-07T12:39:17.451Z,22.20
2018-07-07T12:41:46.557Z,22.00
2018-07-07T12:44:15.603Z,22.00
2018-07-07T12:46:44.662Z,22.10
2018-07-07T12:49:13.834Z,22.10
2018-07-07T12:51:42.895Z,22.20
2018-07-07T12:54:12.034Z,22.20
2018-07-07T12:56:41.081Z,22.30
2018-07-07T12:59:10.164Z,22.20
2018-07-07T13:01:39.233Z,22.20
2018-07-07T13:04:08.347Z,22.50
2018-07-07T13:06:37.515Z,22.60
2018-07-07T13:09:07.239Z,22.60
2018-07-07T13:11:36.639Z,22.60
2018-07-07T13:14:05.820Z,22.60
2018-07-07T13:16:34.910Z,22.80
2018-07-07T13:19:04.389Z,23.10
2018-07-07T13:21:33.438Z,23.20
2018-07-07T13:24:02.507Z,23.20
2018-07-07T13:26:31.671Z,23.20
2018-07-07T13:29:00.720Z,23.10
2018-07-07T13:31:29.795Z,22.90
2018-07-07T13:33:58.878Z,22.90
2018-07-07T13:36:27.963Z,22.90
2018-07-07T13:38:57.008Z,22.80
2018-07-07T13:41:26.092Z,22.80
2018-07-07T13:43:55.152Z,22.90
2018-07-07T13:46:24.256Z,23.00
2018-07-07T13:48:53.300Z,22.90
2018-07-07T13:51:22.345Z,22.90
2018-07-07T13:53:51.380Z,23.00
2018-07-07T13:56:20.443Z,23.20
2018-07-07T13:58:49.539Z,23.20
2018-07-07T14:03:47.339Z,23.10
2018-07-07T14:06:16.424Z,23.10
2018-07-07T14:08:45.494Z,23.30
2018-07-07T14:11:14.546Z,23.20
2018-07-07T14:13:43.732Z,23.30
2018-07-07T14:16:12.823Z,23.20
2018-07-07T14:18:41.932Z,23.20
2018-07-07T14:21:10.979Z,23.30
2018-07-07T14:23:40.007Z,23.20
2018-07-07T14:26:09.078Z,23.20
2018-07-07T14:28:38.604Z,23.30
2018-07-07T14:31:07.711Z,23.20
2018-07-07T14:33:36.741Z,23.20
2018-07-07T14:36:05.896Z,23.20
2018-07-07T14:38:36.311Z,23.30
2018-07-07T14:41:16.322Z,23.30
2018-07-07T14:43:52.830Z,23.30
2018-07-07T14:46:22.250Z,23.40
2018-07-07T14:48:51.549Z,23.60
2018-07-07T14:51:20.595Z,23.90
2018-07-07T14:53:49.713Z,23.50
2018-07-07T14:56:20.058Z,23.50
2018-07-07T14:58:49.651Z,23.70
2018-07-07T15:01:18.779Z,23.80
2018-07-07T15:03:47.852Z,23.80
2018-07-07T15:06:16.910Z,23.70
2018-07-07T15:08:46.058Z,23.90
2018-07-07T15:11:15.132Z,23.90
2018-07-07T15:13:46.909Z,23.80
2018-07-07T15:16:15.978Z,23.90
2018-07-07T15:18:45.184Z,24.30
2018-07-07T15:21:14.357Z,24.40
2018-07-07T15:23:43.456Z,24.60
2018-07-07T15:26:12.507Z,25.10
2018-07-07T15:28:41.575Z,25.90
2018-07-07T15:31:10.630Z,26.00
2018-07-07T15:33:39.716Z,26.50
2018-07-07T15:36:08.779Z,26.50
2018-07-07T15:38:37.852Z,26.90
2018-07-07T15:41:06.921Z,27.40
2018-07-07T15:43:36.127Z,27.30
2018-07-07T15:46:05.422Z,27.70
2018-07-07T15:48:34.395Z,28.20
2018-07-07T15:51:03.499Z,27.90
2018-07-07T15:53:32.620Z,28.70
2018-07-07T15:58:30.425Z,29.30
2018-07-07T16:00:59.499Z,30.00
2018-07-07T16:03:28.667Z,30.50
2018-07-07T16:05:57.714Z,30.90
2018-07-07T16:08:26.767Z,30.40
2018-07-07T16:10:55.847Z,29.70
2018-07-07T16:13:24.923Z,29.70
2018-07-07T16:15:53.990Z,30.40
2018-07-07T16:18:23.047Z,29.00
2018-07-07T16:20:52.132Z,29.40
2018-07-07T16:23:21.215Z,30.00
2018-07-07T16:25:50.250Z,30.10
2018-07-07T16:28:19.319Z,30.00
2018-07-07T16:33:17.067Z,30.70
2018-07-07T16:35:46.123Z,30.10
2018-07-07T16:38:15.178Z,30.40
2018-07-07T16:40:44.267Z,30.40
2018-07-07T16:43:14.170Z,30.60
2018-07-07T16:45:43.282Z,31.40
2018-07-07T16:48:12.620Z,31.70
2018-07-07T16:50:41.699Z,31.10
2018-07-07T16:53:11.052Z,30.90
2018-07-07T16:55:40.169Z,31.40
2018-07-07T16:58:09.647Z,31.00
2018-07-07T17:00:38.732Z,31.10
2018-07-07T17:03:07.877Z,31.40
2018-07-07T17:05:36.956Z,31.40
2018-07-07T17:08:06.020Z,32.20
2018-07-07T17:10:35.092Z,32.90
2018-07-07T17:15:33.591Z,32.20
2018-07-07T17:18:04.392Z,32.00
2018-07-07T17:20:33.914Z,31.40
2018-07-07T17:25:31.635Z,29.90
2018-07-07T17:28:00.719Z,28.70
2018-07-07T17:30:29.812Z,28.80
2018-07-07T17:32:58.890Z,29.20
2018-07-07T17:35:28.032Z,28.80
2018-07-07T17:37:57.267Z,28.80
2018-07-07T17:40:26.329Z,29.30
2018-07-07T17:42:55.869Z,29.40
2018-07-07T17:45:25.016Z,29.70
2018-07-07T17:47:54.212Z,28.70
2018-07-07T17:50:23.287Z,27.90
2018-07-07T17:52:52.427Z,27.60
2018-07-07T17:55:22.672Z,28.00
2018-07-07T17:57:51.990Z,28.10
2018-07-07T18:00:21.507Z,27.40
2018-07-07T18:02:52.272Z,27.00
2018-07-07T18:05:21.342Z,26.10
2018-07-07T18:07:50.408Z,25.20
2018-07-07T18:10:19.511Z,24.30
2018-07-07T18:12:48.569Z,23.60
2018-07-07T18:15:17.714Z,23.00
2018-07-07T18:17:46.740Z,22.70
2018-07-07T18:20:15.887Z,22.50
2018-07-07T18:22:45.125Z,22.20
2018-07-07T18:25:14.203Z,22.00
2018-07-07T18:27:43.264Z,21.90
2018-07-07T18:30:12.341Z,21.80
2018-07-07T18:32:41.580Z,21.80
2018-07-07T18:35:10.795Z,21.50
2018-07-07T18:37:39.896Z,21.50
2018-07-07T18:40:09.300Z,21.50
2018-07-07T18:42:38.387Z,21.40
2018-07-07T18:45:07.448Z,21.30
2018-07-07T18:50:05.334Z,21.10
2018-07-07T18:52:34.424Z,21.00
2018-07-07T18:55:03.543Z,21.00
2018-07-07T18:57:32.599Z,20.90
2018-07-07T19:00:01.676Z,20.80
2018-07-07T19:02:30.743Z,20.70
2018-07-07T19:04:59.831Z,20.70
2018-07-07T19:07:29.359Z,20.70
2018-07-07T19:09:58.429Z,20.70
2018-07-07T19:12:27.508Z,20.60
2018-07-07T19:15:00.982Z,20.50
2018-07-07T19:17:30.175Z,20.40
2018-07-07T19:19:59.235Z,20.30
2018-07-07T19:22:33.658Z,20.20
2018-07-07T19:25:08.070Z,20.20
2018-07-07T19:27:37.143Z,20.10
2018-07-07T19:30:06.360Z,20.00
2018-07-07T19:32:40.783Z,20.00
2018-07-07T19:35:15.500Z,19.90
2018-07-07T19:37:44.553Z,19.80
2018-07-07T19:40:13.648Z,19.70
2018-07-07T19:42:43.150Z,19.60
2018-07-07T19:45:12.240Z,19.50
2018-07-07T19:47:41.367Z,19.40
2018-07-07T19:50:10.435Z,19.40
2018-07-07T19:52:39.490Z,19.30
2018-07-07T19:55:08.635Z,19.20
2018-07-07T19:57:37.718Z,19.20
2018-07-07T20:00:07.335Z,19.10
2018-07-07T20:02:36.416Z,19.00
2018-07-07T20:05:06.432Z,19.00
2018-07-07T20:07:35.687Z,18.90
2018-07-07T20:10:04.775Z,18.80
2018-07-07T20:12:33.827Z,18.70
2018-07-07T20:15:02.923Z,18.60
2018-07-07T20:17:44.456Z,18.60
2018-07-07T20:20:34.519Z,18.50
2018-07-07T20:23:04.871Z,18.50
2018-07-07T20:25:33.979Z,18.40
2018-07-07T20:28:08.398Z,18.30
2018-07-07T20:30:37.709Z,18.20
2018-07-07T20:33:07.178Z,18.20
2018-07-07T20:35:36.300Z,18.10
2018-07-07T20:38:05.431Z,18.00
2018-07-07T20:40:34.486Z,18.00
2018-07-07T20:43:03.597Z,17.90
2018-07-07T20:45:32.652Z,17.90
2018-07-07T20:48:01.755Z,17.90
2018-07-07T20:50:30.812Z,17.80
2018-07-07T20:52:59.872Z,17.70
2018-07-07T20:55:28.928Z,17.60
2018-07-07T20:57:58.254Z,17.50
2018-07-07T21:00:27.321Z,17.50
2018-07-07T21:02:56.367Z,17.40
2018-07-07T21:05:25.439Z,17.30
2018-07-07T21:07:54.602Z,17.30
2018-07-07T21:10:23.902Z,17.30
2018-07-07T21:12:52.999Z,17.20
2018-07-07T21:15:22.104Z,17.20
2018-07-07T21:17:51.271Z,17.20
2018-07-07T21:20:20.313Z,17.10
2018-07-07T21:22:49.363Z,17.10
2018-07-07T21:25:18.439Z,17.00
2018-07-07T21:27:47.491Z,17.00
2018-07-07T21:30:16.574Z,17.00
2018-07-07T21:32:45.610Z,16.90
2018-07-07T21:35:14.711Z,16.90
2018-07-07T21:37:43.811Z,16.80
2018-07-07T21:40:12.983Z,16.80
2018-07-07T21:42:42.114Z,16.70
2018-07-07T21:45:11.335Z,16.70
2018-07-07T21:47:40.451Z,16.60
2018-07-07T21:50:09.507Z,16.60
2018-07-07T21:52:38.623Z,16.50
2018-07-07T21:55:07.732Z,16.50
2018-07-07T21:57:42.119Z,16.40
2018-07-07T22:00:15.695Z,16.40
2018-07-07T22:02:51.731Z,16.30
2018-07-07T22:05:26.247Z,16.20
2018-07-07T22:10:24.058Z,16.00
2018-07-07T22:12:53.108Z,16.00
2018-07-07T22:15:22.206Z,15.90
2018-07-07T22:17:51.263Z,15.90
2018-07-07T22:20:32.733Z,15.90
2018-07-07T22:23:02.057Z,15.80
2018-07-07T22:25:31.153Z,15.70
2018-07-07T22:28:00.208Z,15.70
2018-07-07T22:30:29.330Z,15.60
2018-07-07T22:33:03.703Z,15.60
2018-07-07T22:35:38.380Z,15.50
2018-07-07T22:39:12.271Z,15.50
2018-07-07T22:42:02.793Z,15.40
2018-07-07T22:44:32.467Z,15.40
2018-07-07T22:47:01.715Z,15.30
2018-07-07T22:49:31.258Z,15.30
2018-07-07T22:52:00.331Z,15.30
2018-07-07T22:54:29.389Z,15.30
2018-07-07T22:56:58.619Z,15.20
2018-07-07T22:59:27.688Z,15.20
2018-07-07T23:01:56.783Z,15.20
2018-07-07T23:04:25.827Z,15.20
2018-07-07T23:06:55.044Z,15.20
2018-07-07T23:09:24.139Z,15.20
2018-07-07T23:11:53.207Z,15.10
2018-07-07T23:14:22.414Z,15.00
2018-07-07T23:16:51.468Z,14.90
2018-07-07T23:19:20.518Z,14.90
2018-07-07T23:24:18.424Z,14.80
2018-07-07T23:26:47.615Z,14.80
2018-07-07T23:29:16.685Z,14.70
2018-07-07T23:31:45.883Z,14.70
2018-07-07T23:34:14.968Z,14.70
2018-07-07T23:36:44.064Z,14.70
2018-07-07T23:39:13.162Z,14.70
2018-07-07T23:41:42.250Z,14.60
2018-07-07T23:44:11.361Z,14.60
2018-07-07T23:49:09.136Z,14.60
2018-07-07T23:51:38.206Z,14.60
2018-07-07T23:54:07.299Z,14.50
2018-07-07T23:56:36.370Z,14.50
2018-07-07T23:59:05.485Z,14.50
